Time;durP1;ratioP1;P1;durP2;ratioP2;P2;SDS_P1;SDS_P2;PMS_P1;PMS_P2;Temp;Humidity;BMP_temperature;BMP_pressure;BME280_temperature;BME280_humidity;BME280_pressure;Samples;Min_cycle;Max_cycle;Signal;HPM_P1;HPM_P2
2022/09/13 00:02:00;;;;;;;5.50;2.60;;;18.00;90.90;;;;;;5055224;28;20482;-66
2022/09/13 00:04:25;;;;;;;4.18;2.50;;;17.90;90.60;;;;;;5063149;28;20017;-66
2022/09/13 00:06:51;;;;;;;2.85;2.30;;;18.00;90.60;;;;;;5064222;28;20029;-66
2022/09/13 00:09:16;;;;;;;3.08;2.20;;;17.90;90.60;;;;;;5073938;28;20496;-66
2022/09/13 00:11:42;;;;;;;5.22;2.20;;;18.00;90.60;;;;;;5068643;28;20139;-66
2022/09/13 00:14:07;;;;;;;4.38;2.60;;;17.90;90.60;;;;;;5059709;28;20112;-66
2022/09/13 00:16:33;;;;;;;2.38;2.10;;;17.90;90.60;;;;;;5069177;28;20032;-66
2022/09/13 00:19:00;;;;;;;3.35;2.35;;;17.90;90.60;;;;;;5062239;28;20470;-66
2022/09/13 00:21:26;;;;;;;3.75;2.47;;;17.90;90.60;;;;;;5059965;28;20040;-66
2022/09/13 00:23:54;;;;;;;4.05;2.97;;;17.90;90.90;;;;;;5061731;28;20113;-66
2022/09/13 00:26:22;;;;;;;5.70;2.75;;;17.90;90.60;;;;;;5060637;28;20348;-67
2022/09/13 00:28:53;;;;;;;3.05;2.20;;;17.90;90.60;;;;;;5071329;28;20035;-66
2022/09/13 00:31:24;;;;;;;3.50;2.42;;;17.90;90.60;;;;;;5067476;28;20020;-66
2022/09/13 00:33:49;;;;;;;5.43;2.35;;;17.90;90.60;;;;;;5068616;28;20043;-66
2022/09/13 00:36:15;;;;;;;9.38;2.83;;;17.90;90.60;;;;;;5065847;28;20028;-66
2022/09/13 00:38:42;;;;;;;5.38;2.80;;;17.90;90.60;;;;;;5064957;28;20024;-66
2022/09/13 00:41:12;;;;;;;4.68;2.50;;;17.90;90.60;;;;;;5069572;28;20112;-66
2022/09/13 00:43:50;;;;;;;4.15;2.40;;;17.90;90.60;;;;;;5062695;28;20079;-66
2022/09/13 00:46:41;;;;;;;5.63;3.00;;;17.80;90.60;;;;;;5051802;28;20037;-66
2022/09/13 00:49:30;;;;;;;3.53;2.30;;;17.90;90.60;;;;;;5052352;28;20021;-66
2022/09/13 00:52:01;;;;;;;3.30;2.42;;;17.80;90.60;;;;;;5059768;28;20028;-66
2022/09/13 00:54:34;;;;;;;3.05;2.50;;;17.80;90.60;;;;;;5059567;28;20020;-66
2022/09/13 00:57:01;;;;;;;5.53;2.50;;;17.80;90.60;;;;;;5051044;28;20036;-66
2022/09/13 00:59:32;;;;;;;3.20;2.40;;;17.80;90.60;;;;;;5059503;28;20386;-66
2022/09/13 01:02:00;;;;;;;4.50;2.35;;;17.80;90.60;;;;;;5053668;28;20032;-66
2022/09/13 01:04:28;;;;;;;4.72;2.30;;;17.80;90.60;;;;;;5073014;28;20027;-66
2022/09/13 01:07:01;;;;;;;3.88;2.25;;;17.80;90.60;;;;;;5060690;28;20098;-66
2022/09/13 01:09:28;;;;;;;3.50;2.38;;;17.80;90.60;;;;;;5052820;28;20417;-66
2022/09/13 01:15:16;;;;;;;4.78;2.40;;;17.80;90.60;;;;;;5116239;22;20570;-69
2022/09/13 01:17:42;;;;;;;8.00;2.20;;;17.80;90.90;;;;;;5081914;28;20020;-69
2022/09/13 01:20:13;;;;;;;19.15;3.10;;;17.80;90.60;;;;;;5061512;28;20119;-70
2022/09/13 01:23:13;;;;;;;4.05;2.08;;;17.80;90.60;;;;;;5079771;28;20027;-69
2022/09/13 01:26:13;;;;;;;3.85;2.10;;;17.80;90.90;;;;;;5077859;28;20025;-69
2022/09/13 01:29:16;;;;;;;7.90;2.50;;;17.80;90.60;;;;;;5080134;28;20012;-69
2022/09/13 01:32:20;;;;;;;6.18;2.47;;;17.80;90.60;;;;;;5083157;28;20028;-69
2022/09/13 01:35:15;;;;;;;4.53;2.92;;;17.80;90.60;;;;;;5061564;28;20047;-69
2022/09/13 01:38:20;;;;;;;4.55;3.10;;;17.80;90.60;;;;;;5078760;28;20111;-69
2022/09/13 01:41:09;;;;;;;7.22;3.55;;;17.70;90.50;;;;;;5043552;28;20410;-69
2022/09/13 01:43:48;;;;;;;3.25;2.50;;;17.70;90.50;;;;;;5081727;28;20524;-69
2022/09/13 01:50:16;;;;;;;4.43;2.42;;;17.70;90.50;;;;;;5074601;28;20104;-69
2022/09/13 01:52:54;;;;;;;3.85;2.20;;;17.70;90.50;;;;;;5079346;28;20027;-69
2022/09/13 01:55:42;;;;;;;7.15;3.35;;;17.70;90.50;;;;;;5079595;28;20025;-69
2022/09/13 01:58:35;;;;;;;3.28;2.50;;;17.70;90.50;;;;;;5080001;28;20089;-69
2022/09/13 02:01:02;;;;;;;5.22;2.30;;;17.70;90.50;;;;;;5079947;28;20508;-69
2022/09/13 02:03:36;;;;;;;2.53;1.75;;;17.70;90.50;;;;;;5064228;28;20233;-69
2022/09/13 02:06:26;;;;;;;4.55;2.60;;;17.70;90.90;;;;;;5062018;28;20429;-68
2022/09/13 02:09:03;;;;;;;7.75;2.58;;;17.70;90.60;;;;;;5054106;28;20518;-69
2022/09/13 02:11:32;;;;;;;6.50;2.63;;;17.70;90.50;;;;;;5040915;28;20029;-69
2022/09/13 02:14:06;;;;;;;2.97;2.10;;;17.70;90.50;;;;;;5021254;28;20041;-69
2022/09/13 02:16:49;;;;;;;7.40;2.58;;;17.70;90.50;;;;;;5038245;28;20112;-69
2022/09/13 02:19:18;;;;;;;3.42;2.65;;;17.70;90.50;;;;;;5020244;28;20041;-70
2022/09/13 02:21:50;;;;;;;7.65;2.90;;;17.70;90.50;;;;;;5035873;28;20033;-69
2022/09/13 02:24:21;;;;;;;6.88;3.10;;;17.70;90.50;;;;;;5038862;28;20091;-69
2022/09/13 02:26:51;;;;;;;7.40;2.97;;;17.70;90.50;;;;;;5022053;28;20047;-69
2022/09/13 02:29:19;;;;;;;2.88;2.58;;;17.70;90.50;;;;;;5020779;28;20049;-70
2022/09/13 02:31:54;;;;;;;2.60;2.13;;;17.70;90.50;;;;;;5040476;28;20049;-68
2022/09/13 02:34:23;;;;;;;4.00;2.03;;;17.70;90.50;;;;;;5014189;28;20049;-69
2022/09/13 02:36:51;;;;;;;3.25;2.35;;;17.70;90.50;;;;;;5038106;28;20108;-69
2022/09/13 02:39:22;;;;;;;5.35;2.42;;;17.70;90.50;;;;;;5031360;28;20036;-69
2022/09/13 02:41:55;;;;;;;4.85;2.40;;;17.70;90.50;;;;;;5081354;28;20028;-69
2022/09/13 02:44:25;;;;;;;3.40;2.38;;;17.70;90.50;;;;;;5079261;28;20025;-69
2022/09/13 02:47:13;;;;;;;4.57;2.53;;;17.60;90.50;;;;;;5062784;28;20320;-69
2022/09/13 02:50:01;;;;;;;13.43;2.65;;;17.60;90.40;;;;;;5060084;28;20275;-69
2022/09/13 02:52:54;;;;;;;2.45;2.25;;;17.60;90.50;;;;;;5060242;28;20031;-69
2022/09/13 02:55:59;;;;;;;4.07;2.55;;;17.60;90.40;;;;;;5054408;28;20123;-69
2022/09/13 02:58:33;;;;;;;3.83;2.30;;;17.60;90.40;;;;;;5077910;28;20038;-70
2022/09/13 03:00:59;;;;;;;7.70;3.00;;;17.60;90.40;;;;;;5076756;28;20093;-69
2022/09/13 03:03:24;;;;;;;3.95;2.60;;;17.60;90.40;;;;;;5063361;28;20107;-68
2022/09/13 03:05:51;;;;;;;4.93;2.70;;;17.60;90.40;;;;;;5081493;28;20521;-69
2022/09/13 03:08:17;;;;;;;5.38;2.53;;;17.60;90.40;;;;;;5060558;28;20031;-69
2022/09/13 03:10:52;;;;;;;3.03;2.00;;;17.60;90.40;;;;;;5078417;28;20047;-68
2022/09/13 03:13:45;;;;;;;2.42;2.13;;;17.60;90.40;;;;;;5066201;28;20215;-69
2022/09/13 03:16:37;;;;;;;3.65;2.22;;;17.60;90.40;;;;;;5080768;28;20081;-69
2022/09/13 03:19:21;;;;;;;2.58;2.03;;;17.60;90.40;;;;;;5045432;28;20089;-69
2022/09/13 03:22:06;;;;;;;2.67;1.95;;;17.60;90.40;;;;;;5082023;28;20060;-69
2022/09/13 03:24:58;;;;;;;3.05;2.13;;;17.60;90.40;;;;;;5082245;28;20023;-69
2022/09/13 03:27:42;;;;;;;3.95;2.45;;;17.50;90.40;;;;;;5083237;28;20040;-69
2022/09/13 03:30:11;;;;;;;9.35;2.97;;;17.60;90.40;;;;;;5064950;28;20028;-69
2022/09/13 03:32:58;;;;;;;3.00;1.90;;;17.60;90.70;;;;;;5086375;28;20084;-69
2022/09/13 03:35:49;;;;;;;3.40;2.40;;;17.60;90.40;;;;;;5082516;28;20016;-69
2022/09/13 03:38:25;;;;;;;4.35;2.40;;;17.50;90.30;;;;;;5063833;28;20025;-70
2022/09/13 03:41:12;;;;;;;9.38;2.13;;;17.50;90.30;;;;;;5085350;28;20036;-69
2022/09/13 03:43:49;;;;;;;3.40;2.40;;;17.50;90.30;;;;;;5081585;28;20051;-69
2022/09/13 03:46:19;;;;;;;4.28;2.30;;;17.50;90.30;;;;;;5081925;28;20111;-70
2022/09/13 03:48:45;;;;;;;3.25;2.20;;;17.50;90.30;;;;;;5085322;28;20654;-69
2022/09/13 03:51:11;;;;;;;5.15;2.50;;;17.50;90.30;;;;;;5084351;28;20060;-69
2022/09/13 03:53:41;;;;;;;4.18;2.38;;;17.50;90.30;;;;;;5081889;28;20098;-69
2022/09/13 03:56:18;;;;;;;3.63;2.00;;;17.50;90.30;;;;;;5081003;28;20029;-69
2022/09/13 03:58:45;;;;;;;3.45;2.55;;;17.50;90.30;;;;;;5063622;28;20028;-69
2022/09/13 04:01:10;;;;;;;4.57;2.17;;;17.50;90.30;;;;;;5067356;28;20411;-69
2022/09/13 04:03:37;;;;;;;2.40;1.98;;;17.50;90.30;;;;;;5081026;28;20017;-69
2022/09/13 04:06:04;;;;;;;7.40;2.25;;;17.50;90.30;;;;;;5079756;28;20508;-69
2022/09/13 04:08:30;;;;;;;7.40;2.88;;;17.50;90.30;;;;;;5081805;28;20078;-69
2022/09/13 04:10:57;;;;;;;3.75;2.67;;;17.50;90.30;;;;;;5081403;28;20043;-68
2022/09/13 04:13:22;;;;;;;8.60;2.83;;;17.50;90.30;;;;;;5064578;28;20028;-69
2022/09/13 04:15:51;;;;;;;7.63;3.25;;;17.50;90.30;;;;;;5063739;28;20047;-69
2022/09/13 04:18:17;;;;;;;7.63;2.80;;;17.50;90.20;;;;;;5063780;28;20032;-69
2022/09/13 04:20:43;;;;;;;4.00;2.83;;;17.50;90.30;;;;;;5075269;28;20024;-69
2022/09/13 04:23:09;;;;;;;7.03;2.85;;;17.50;90.20;;;;;;5084365;28;20028;-69
2022/09/13 04:39:14;;;;;;;6.50;2.72;;;17.40;90.20;;;;;;4980409;28;20550;-69
2022/09/13 04:41:43;;;;;;;4.43;2.85;;;17.40;90.20;;;;;;4971036;28;20023;-69
2022/09/13 04:44:09;;;;;;;9.88;3.03;;;17.40;90.20;;;;;;4963289;28;20023;-69
2022/09/13 04:46:35;;;;;;;5.35;2.70;;;17.40;90.20;;;;;;4971754;28;20527;-69
2022/09/13 04:49:03;;;;;;;3.63;2.42;;;17.40;90.20;;;;;;4968586;28;20036;-69
2022/09/13 04:54:38;;;;;;;3.70;2.47;;;17.40;90.20;;;;;;4915891;29;20068;-69
2022/09/13 04:57:05;;;;;;;5.38;2.67;;;17.40;90.20;;;;;;4908681;28;20510;-69
2022/09/13 04:59:31;;;;;;;5.03;2.42;;;17.40;90.20;;;;;;4969007;28;20706;-69
2022/09/13 05:01:56;;;;;;;3.95;2.38;;;17.40;90.10;;;;;;4976813;28;20125;-69
2022/09/13 05:04:22;;;;;;;3.55;2.20;;;17.40;90.10;;;;;;4978671;28;20439;-69
2022/09/13 05:06:47;;;;;;;7.93;2.42;;;17.40;90.10;;;;;;4961814;28;20058;-69
2022/09/13 05:09:14;;;;;;;4.53;2.72;;;17.40;90.10;;;;;;4962368;28;20424;-69
2022/09/13 05:11:40;;;;;;;4.68;2.35;;;17.40;90.10;;;;;;5003017;28;20477;-68
2022/09/13 05:14:05;;;;;;;3.30;2.40;;;17.40;90.10;;;;;;5065223;28;20046;-69
2022/09/13 05:16:32;;;;;;;5.53;2.60;;;17.40;90.10;;;;;;5062588;28;20068;-70
2022/09/13 05:18:58;;;;;;;5.90;3.03;;;17.40;90.00;;;;;;5062185;28;20055;-70
2022/09/13 05:21:24;;;;;;;4.75;2.90;;;17.40;90.00;;;;;;5062135;28;20087;-70
2022/09/13 05:23:52;;;;;;;5.18;2.60;;;17.40;90.10;;;;;;5062253;28;20021;-70
2022/09/13 05:26:21;;;;;;;4.93;2.92;;;17.40;90.00;;;;;;5069464;28;20032;-70
2022/09/13 05:28:47;;;;;;;6.93;2.80;;;17.40;90.00;;;;;;5062615;28;20024;-70
2022/09/13 05:31:17;;;;;;;10.63;3.35;;;17.40;90.00;;;;;;5061128;28;20073;-70
2022/09/13 05:33:44;;;;;;;3.78;2.30;;;17.40;90.00;;;;;;5059906;28;20520;-70
2022/09/13 05:36:14;;;;;;;4.07;2.35;;;17.40;90.00;;;;;;5067726;28;20523;-70
2022/09/13 05:38:39;;;;;;;4.90;2.33;;;17.40;90.00;;;;;;5062333;28;20043;-70
2022/09/13 05:41:05;;;;;;;12.65;2.42;;;17.40;90.00;;;;;;5077000;28;20507;-70
2022/09/13 05:43:33;;;;;;;8.55;2.47;;;17.40;90.00;;;;;;5081229;28;20036;-70
2022/09/13 05:46:01;;;;;;;3.55;2.42;;;17.40;90.00;;;;;;5060714;28;20032;-70
2022/09/13 05:48:27;;;;;;;10.70;2.15;;;17.40;90.00;;;;;;5061862;28;20028;-70
2022/09/13 05:50:53;;;;;;;5.60;2.20;;;17.40;90.00;;;;;;5061487;28;20409;-70
2022/09/13 05:53:18;;;;;;;9.85;2.72;;;17.40;90.00;;;;;;5079182;28;20016;-70
2022/09/13 05:55:44;;;;;;;5.43;2.22;;;17.40;89.90;;;;;;5061282;28;20111;-70
2022/09/13 05:58:10;;;;;;;6.63;2.90;;;17.40;89.90;;;;;;5067765;28;20027;-70
2022/09/13 06:00:36;;;;;;;3.92;2.45;;;17.40;89.90;;;;;;5062993;28;20028;-70
2022/09/13 06:03:04;;;;;;;4.47;2.47;;;17.40;89.90;;;;;;5071859;28;20490;-70
2022/09/13 06:05:29;;;;;;;3.97;2.42;;;17.40;89.80;;;;;;5087796;28;20119;-70
2022/09/13 06:07:55;;;;;;;4.68;2.35;;;17.40;89.60;;;;;;5061138;28;20111;-70
2022/09/13 06:10:20;;;;;;;5.38;2.92;;;17.50;89.60;;;;;;5068679;28;20024;-70
2022/09/13 06:12:49;;;;;;;7.05;2.50;;;17.50;89.50;;;;;;5079499;28;20032;-70
2022/09/13 06:15:14;;;;;;;4.18;2.58;;;17.50;89.40;;;;;;5079302;28;20037;-70
2022/09/13 06:17:40;;;;;;;4.35;2.88;;;17.50;89.30;;;;;;5061690;28;20032;-70
2022/09/13 06:20:06;;;;;;;4.90;2.70;;;17.50;89.30;;;;;;5064442;28;20020;-70
2022/09/13 06:22:34;;;;;;;5.53;3.03;;;17.60;90.10;;;;;;5047458;28;20025;-70
2022/09/13 06:24:59;;;;;;;4.60;3.05;;;17.60;89.40;;;;;;5062251;28;20028;-70
2022/09/13 06:27:25;;;;;;;4.03;2.50;;;17.60;89.40;;;;;;5061722;28;20021;-70
2022/09/13 06:29:51;;;;;;;5.90;2.67;;;17.70;89.40;;;;;;5044295;28;20024;-70
2022/09/13 06:32:16;;;;;;;15.45;3.22;;;17.70;89.40;;;;;;5060453;28;20063;-71
2022/09/13 06:34:43;;;;;;;9.00;3.35;;;17.70;89.40;;;;;;5060138;28;20487;-70
2022/09/13 06:37:08;;;;;;;10.48;2.83;;;17.70;89.40;;;;;;5058307;28;20041;-70
2022/09/13 06:39:34;;;;;;;6.00;2.85;;;17.80;89.40;;;;;;5040810;28;20018;-70
2022/09/13 06:42:00;;;;;;;5.35;2.63;;;17.80;89.40;;;;;;5061578;28;20028;-70
2022/09/13 06:44:25;;;;;;;4.22;2.63;;;17.80;89.30;;;;;;5043925;28;20017;-70
2022/09/13 06:46:51;;;;;;;5.85;3.30;;;17.90;89.40;;;;;;5058628;28;20028;-70
2022/09/13 06:49:16;;;;;;;4.40;2.90;;;17.90;89.30;;;;;;5034808;28;20057;-71
2022/09/13 06:51:42;;;;;;;6.65;2.92;;;18.00;89.30;;;;;;5059721;28;20549;-70
2022/09/13 06:54:08;;;;;;;3.75;2.40;;;18.00;89.30;;;;;;5043981;28;20499;-70
2022/09/13 06:56:36;;;;;;;4.28;2.85;;;18.00;89.20;;;;;;5061908;28;20029;-70
2022/09/13 06:59:05;;;;;;;9.82;3.10;;;18.10;89.20;;;;;;5061663;28;20016;-70
2022/09/13 07:01:34;;;;;;;6.68;2.95;;;18.10;89.20;;;;;;5053517;28;20293;-70
2022/09/13 07:04:02;;;;;;;3.47;2.85;;;18.20;89.20;;;;;;5059974;28;20103;-70
2022/09/13 07:06:36;;;;;;;7.35;2.80;;;18.20;89.10;;;;;;5057774;28;20159;-70
2022/09/13 07:09:04;;;;;;;5.60;2.55;;;18.30;89.10;;;;;;5040790;28;20444;-70
2022/09/13 07:11:32;;;;;;;6.00;2.72;;;18.30;89.10;;;;;;5040137;28;20115;-70
2022/09/13 07:13:58;;;;;;;5.07;3.00;;;18.40;89.10;;;;;;5043640;28;20086;-70
2022/09/13 07:16:26;;;;;;;8.52;2.88;;;18.40;89.10;;;;;;5043212;28;20382;-70
2022/09/13 07:19:04;;;;;;;4.40;2.83;;;18.40;89.10;;;;;;5058558;28;20040;-70
2022/09/13 07:21:31;;;;;;;10.65;2.70;;;18.50;89.20;;;;;;5039622;28;20029;-70
2022/09/13 07:23:57;;;;;;;4.22;2.47;;;18.50;89.10;;;;;;5040789;28;20016;-70
2022/09/13 07:26:25;;;;;;;4.90;2.88;;;18.60;89.20;;;;;;5038613;28;20453;-70
2022/09/13 07:28:54;;;;;;;8.85;2.30;;;18.60;89.10;;;;;;5058360;28;20063;-70
2022/09/13 07:31:22;;;;;;;3.92;2.70;;;18.70;89.10;;;;;;5058295;28;20096;-70
2022/09/13 07:33:54;;;;;;;6.82;2.42;;;18.80;89.00;;;;;;5047872;28;20032;-70
2022/09/13 07:36:20;;;;;;;4.47;2.30;;;18.80;88.80;;;;;;5061301;28;20158;-70
2022/09/13 07:38:46;;;;;;;5.63;2.38;;;18.80;88.70;;;;;;5042658;28;20024;-70
2022/09/13 07:41:14;;;;;;;6.80;2.40;;;18.90;88.60;;;;;;5058337;28;20104;-70
2022/09/13 07:43:40;;;;;;;3.63;2.42;;;18.90;88.50;;;;;;5040254;28;20025;-71
2022/09/13 07:46:18;;;;;;;2.47;2.20;;;19.00;88.40;;;;;;5060789;28;20017;-70
2022/09/13 07:51:16;;;;;;;5.75;1.90;;;19.10;88.00;;;;;;5119040;22;20043;-65
2022/09/13 07:53:44;;;;;;;8.77;2.72;;;19.20;87.90;;;;;;5101628;28;20476;-65
2022/09/13 07:56:21;;;;;;;2.22;2.00;;;19.20;87.70;;;;;;5097321;28;20016;-66
2022/09/13 07:58:48;;;;;;;3.15;2.35;;;19.20;87.60;;;;;;5092654;28;20028;-66
2022/09/13 08:01:16;;;;;;;8.93;2.63;;;19.30;87.60;;;;;;5087250;28;20050;-66
2022/09/13 08:03:43;;;;;;;2.60;2.03;;;19.30;87.50;;;;;;5105029;28;20019;-67
2022/09/13 08:06:08;;;;;;;3.53;1.98;;;19.40;87.40;;;;;;5097926;28;20058;-66
2022/09/13 08:08:35;;;;;;;5.30;2.35;;;19.50;87.40;;;;;;5081824;28;20449;-66
2022/09/13 08:11:03;;;;;;;3.40;2.20;;;19.50;87.20;;;;;;5102236;28;20023;-66
2022/09/13 08:13:31;;;;;;;3.88;2.28;;;19.50;87.10;;;;;;5101316;28;20036;-66
2022/09/13 08:16:01;;;;;;;4.00;1.80;;;19.60;87.10;;;;;;5103107;28;20112;-66
2022/09/13 08:18:27;;;;;;;3.97;2.08;;;19.60;87.20;;;;;;5104549;28;20019;-66
2022/09/13 08:20:57;;;;;;;3.33;2.30;;;19.70;87.10;;;;;;5099494;27;20090;-66
2022/09/13 08:23:23;;;;;;;4.97;2.85;;;19.70;87.10;;;;;;5098477;28;20548;-66
2022/09/13 08:25:48;;;;;;;4.85;2.25;;;19.70;87.10;;;;;;5105017;28;20092;-66
2022/09/13 08:28:15;;;;;;;4.10;2.60;;;19.70;86.90;;;;;;5108635;28;20484;-66
2022/09/13 08:30:42;;;;;;;4.32;2.40;;;19.80;86.90;;;;;;5101212;28;20020;-66
2022/09/13 08:33:11;;;;;;;3.47;2.72;;;19.80;86.90;;;;;;5101212;28;20024;-66
2022/09/13 08:35:37;;;;;;;3.73;2.33;;;19.80;86.90;;;;;;5100011;28;20024;-67
2022/09/13 08:38:07;;;;;;;6.55;2.30;;;19.90;86.90;;;;;;5102513;28;20480;-66
2022/09/13 08:40:50;;;;;;;5.80;2.33;;;19.90;86.70;;;;;;5104712;28;20028;-66
2022/09/13 08:43:30;;;;;;;4.50;2.40;;;19.90;86.70;;;;;;5104691;28;20077;-66
2022/09/13 08:46:28;;;;;;;3.08;2.42;;;20.00;86.70;;;;;;5084800;28;20552;-66
2022/09/13 08:49:00;;;;;;;7.82;2.38;;;20.00;86.40;;;;;;5029942;28;20128;-66
2022/09/13 08:51:46;;;;;;;5.28;2.50;;;20.00;86.40;;;;;;5094945;28;20032;-66
2022/09/13 08:54:15;;;;;;;4.82;2.53;;;20.00;86.40;;;;;;5095114;28;20032;-66
2022/09/13 08:57:01;;;;;;;4.28;2.55;;;20.10;86.30;;;;;;5085099;28;20538;-66
2022/09/13 08:59:43;;;;;;;5.60;2.40;;;20.10;86.40;;;;;;5100278;28;20046;-66
2022/09/13 09:02:45;;;;;;;7.63;2.30;;;20.10;86.50;;;;;;5084961;28;20123;-66
2022/09/13 09:05:22;;;;;;;4.28;2.50;;;20.10;86.50;;;;;;5099783;28;20063;-66
2022/09/13 09:07:55;;;;;;;5.70;2.72;;;20.20;86.40;;;;;;5085510;28;20022;-66
2022/09/13 09:10:24;;;;;;;6.57;2.28;;;20.20;86.50;;;;;;5099658;28;20020;-66
2022/09/13 09:13:18;;;;;;;4.57;2.70;;;20.20;86.60;;;;;;5100527;28;20359;-66
2022/09/13 09:15:58;;;;;;;7.00;2.40;;;20.20;86.70;;;;;;5100546;28;20062;-66
2022/09/13 09:18:30;;;;;;;10.98;2.38;;;20.20;86.60;;;;;;5100080;28;20016;-66
2022/09/13 09:20:58;;;;;;;3.58;2.13;;;20.20;86.70;;;;;;5098921;28;20473;-66
2022/09/13 09:23:29;;;;;;;3.38;2.20;;;20.20;86.80;;;;;;5096022;28;20015;-66
2022/09/13 09:26:15;;;;;;;2.40;1.90;;;20.20;86.90;;;;;;5084481;28;20114;-66
2022/09/13 09:28:43;;;;;;;3.72;2.00;;;20.20;87.00;;;;;;5085451;28;20073;-66
2022/09/13 09:31:39;;;;;;;7.63;2.15;;;20.20;87.00;;;;;;5101113;28;20438;-66
2022/09/13 09:34:04;;;;;;;3.33;2.05;;;20.20;87.10;;;;;;5083204;28;20369;-66
2022/09/13 09:36:47;;;;;;;5.07;1.95;;;20.10;87.20;;;;;;5099246;28;20020;-66
2022/09/13 09:39:15;;;;;;;2.45;2.13;;;20.20;87.30;;;;;;5099756;28;20369;-66
2022/09/13 09:41:43;;;;;;;3.28;2.00;;;20.10;87.30;;;;;;5099538;28;20032;-66
2022/09/13 09:44:12;;;;;;;4.82;2.00;;;20.10;87.40;;;;;;5101323;28;20038;-66
2022/09/13 09:46:40;;;;;;;4.85;1.60;;;20.10;87.40;;;;;;5102874;28;20049;-66
2022/09/13 09:52:18;;;;;;;;;;;20.00;87.50;;;;;;5093977;28;20047;-66
2022/09/13 09:54:44;;;;;;;5.65;1.80;;;20.00;87.50;;;;;;5103061;28;20007;-66
2022/09/13 09:57:10;;;;;;;6.18;2.20;;;20.00;87.50;;;;;;5100403;28;20102;-66
2022/09/13 09:59:36;;;;;;;2.35;2.08;;;20.00;87.50;;;;;;5099592;28;20102;-66
2022/09/13 10:02:15;;;;;;;2.28;1.85;;;20.00;87.70;;;;;;5076683;28;20123;-66
2022/09/13 10:04:41;;;;;;;8.68;1.80;;;20.00;87.70;;;;;;5102899;28;20015;-66
2022/09/13 10:07:16;;;;;;;8.73;1.40;;;20.00;87.80;;;;;;5099261;28;20036;-66
2022/09/13 10:09:58;;;;;;;1.73;1.40;;;19.90;88.50;;;;;;5096236;28;20088;-67
2022/09/13 10:12:32;;;;;;;4.05;1.52;;;19.90;87.80;;;;;;5099459;28;20103;-67
2022/09/13 10:15:28;;;;;;;6.05;1.77;;;19.90;87.80;;;;;;5099287;28;20109;-66
2022/09/13 10:18:01;;;;;;;2.95;1.55;;;19.90;87.80;;;;;;5095715;28;20040;-66
2022/09/13 10:20:27;;;;;;;3.75;1.80;;;19.90;87.90;;;;;;5098091;28;20035;-66
2022/09/13 10:23:17;;;;;;;4.75;1.38;;;19.90;87.90;;;;;;5098489;28;20020;-66
2022/09/13 10:25:56;;;;;;;3.08;1.58;;;19.90;87.90;;;;;;5083387;28;20028;-66
2022/09/13 10:28:23;;;;;;;1.30;1.20;;;19.90;87.90;;;;;;5100745;28;20032;-66
2022/09/13 10:31:14;;;;;;;1.58;1.30;;;19.90;87.90;;;;;;5102414;28;20020;-66
2022/09/13 10:33:49;;;;;;;2.05;1.30;;;19.90;88.00;;;;;;5098088;28;20520;-66
2022/09/13 10:36:17;;;;;;;1.83;1.13;;;19.80;87.90;;;;;;5099717;28;20280;-67
2022/09/13 10:38:56;;;;;;;4.45;2.40;;;19.90;88.00;;;;;;5101721;28;20019;-66
2022/09/13 10:41:25;;;;;;;1.92;1.50;;;19.90;88.10;;;;;;5101509;28;20118;-66
2022/09/13 10:44:01;;;;;;;1.30;1.20;;;19.90;88.10;;;;;;5102115;28;20019;-67
2022/09/13 10:46:36;;;;;;;2.20;1.15;;;19.90;88.10;;;;;;5098610;28;20028;-66
2022/09/13 10:49:02;;;;;;;2.50;1.30;;;19.90;88.10;;;;;;5098379;28;20051;-66
2022/09/13 10:51:34;;;;;;;5.45;1.50;;;19.80;88.10;;;;;;5102334;28;20424;-66
2022/09/13 10:54:22;;;;;;;1.73;1.20;;;19.80;88.10;;;;;;5090086;28;20036;-66
2022/09/13 10:56:50;;;;;;;2.78;1.27;;;19.80;88.10;;;;;;5098244;28;20030;-67
2022/09/13 10:59:28;;;;;;;1.92;1.13;;;19.80;88.20;;;;;;5080140;28;20028;-66
2022/09/13 11:02:32;;;;;;;3.08;1.33;;;19.80;88.20;;;;;;5086951;28;20150;-67
2022/09/13 11:05:22;;;;;;;2.22;1.48;;;19.80;88.30;;;;;;5096984;28;20094;-66
2022/09/13 11:08:21;;;;;;;1.50;1.33;;;19.80;88.30;;;;;;5080029;28;20534;-66
2022/09/13 11:11:19;;;;;;;1.67;1.52;;;19.90;88.30;;;;;;5080963;28;20012;-67
2022/09/13 11:14:01;;;;;;;1.95;1.17;;;19.90;88.30;;;;;;5084855;28;20043;-67
2022/09/13 11:16:45;;;;;;;2.40;1.23;;;19.90;88.30;;;;;;5098805;28;20024;-67
2022/09/13 11:19:16;;;;;;;5.80;1.42;;;19.90;88.30;;;;;;5107242;28;20020;-66
2022/09/13 11:22:03;;;;;;;2.75;1.55;;;19.90;88.30;;;;;;5080953;28;20040;-66
2022/09/13 11:25:07;;;;;;;1.55;1.38;;;19.90;88.30;;;;;;5092199;28;20130;-67
2022/09/13 11:27:58;;;;;;;1.75;1.30;;;19.90;88.40;;;;;;5101051;28;20024;-66
2022/09/13 11:30:25;;;;;;;5.93;1.15;;;19.90;88.30;;;;;;5099453;28;20468;-66
2022/09/13 11:33:09;;;;;;;7.88;1.50;;;19.90;88.30;;;;;;5100186;28;20095;-66
2022/09/13 11:36:14;;;;;;;1.63;1.23;;;19.90;88.30;;;;;;5105479;28;20396;-66
2022/09/13 11:39:01;;;;;;;2.65;1.30;;;19.90;88.30;;;;;;5102072;28;20024;-66
2022/09/13 11:41:45;;;;;;;1.25;1.00;;;19.90;88.30;;;;;;5103814;28;20140;-66
2022/09/13 11:44:32;;;;;;;1.17;1.10;;;19.90;88.30;;;;;;5105909;28;20284;-66
2022/09/13 11:47:23;;;;;;;2.13;1.10;;;19.90;88.30;;;;;;5099570;28;20027;-67
2022/09/13 11:50:17;;;;;;;2.17;1.20;;;19.90;88.30;;;;;;5098467;28;20039;-66
2022/09/13 11:53:16;;;;;;;4.75;1.10;;;19.90;88.30;;;;;;5101499;28;20051;-66
2022/09/13 11:55:53;;;;;;;1.77;1.20;;;19.90;88.30;;;;;;5102171;28;20077;-68
2022/09/13 11:58:27;;;;;;;2.13;1.05;;;19.90;89.00;;;;;;5102108;28;20546;-67
2022/09/13 12:01:05;;;;;;;1.23;1.00;;;19.90;88.40;;;;;;5105163;28;20036;-66
2022/09/13 12:03:51;;;;;;;1.95;1.13;;;19.90;88.40;;;;;;5102866;28;20442;-66
2022/09/13 12:06:22;;;;;;;1.50;1.00;;;19.90;88.40;;;;;;5099779;28;20028;-67
2022/09/13 12:08:56;;;;;;;3.55;0.88;;;19.90;88.30;;;;;;5100385;28;20024;-66
2022/09/13 12:11:27;;;;;;;0.70;0.70;;;19.90;88.40;;;;;;5101911;28;20032;-66
2022/09/13 12:14:03;;;;;;;0.98;0.82;;;19.90;88.40;;;;;;5087426;28;20104;-66
2022/09/13 12:16:48;;;;;;;1.55;1.10;;;19.90;88.40;;;;;;5102665;28;20023;-66
2022/09/13 12:19:20;;;;;;;0.88;0.88;;;19.90;88.40;;;;;;5101697;28;20476;-65
2022/09/13 12:21:47;;;;;;;1.85;1.00;;;19.90;88.50;;;;;;5104027;28;21019;-66
2022/09/13 12:24:18;;;;;;;1.25;1.15;;;19.90;88.60;;;;;;5078554;28;20036;-66
2022/09/13 12:27:05;;;;;;;1.10;0.95;;;19.90;88.60;;;;;;5104953;28;20107;-66
2022/09/13 12:29:47;;;;;;;1.33;0.95;;;19.90;88.60;;;;;;5102752;28;20099;-66
2022/09/13 12:32:14;;;;;;;1.25;1.02;;;19.90;88.60;;;;;;5101461;28;20042;-66
2022/09/13 12:34:49;;;;;;;2.47;1.20;;;19.90;88.60;;;;;;5103746;28;20044;-66
2022/09/13 12:37:30;;;;;;;2.35;1.00;;;19.90;88.60;;;;;;5096603;28;20048;-65
2022/09/13 12:40:11;;;;;;;1.25;1.15;;;19.90;88.70;;;;;;5100949;28;20024;-66
2022/09/13 12:42:58;;;;;;;3.95;1.08;;;19.90;88.70;;;;;;5102656;28;20616;-66
2022/09/13 12:45:30;;;;;;;1.55;0.90;;;19.90;88.70;;;;;;5103733;28;20107;-66
2022/09/13 12:48:25;;;;;;;1.55;1.10;;;19.90;88.70;;;;;;5085267;28;20034;-66
2022/09/13 12:51:15;;;;;;;1.05;0.80;;;19.90;88.70;;;;;;5086490;28;20144;-66
2022/09/13 12:53:40;;;;;;;0.82;0.70;;;19.90;88.80;;;;;;5084672;28;20028;-67
2022/09/13 12:56:18;;;;;;;3.10;0.80;;;19.90;88.90;;;;;;5103497;28;20053;-67
2022/09/13 12:59:21;;;;;;;1.27;0.80;;;19.90;88.90;;;;;;5100969;28;20024;-66
2022/09/13 13:01:49;;;;;;;0.55;0.55;;;19.90;88.90;;;;;;5103702;28;20644;-66
2022/09/13 13:04:22;;;;;;;2.25;0.70;;;19.90;88.90;;;;;;5104745;28;20019;-66
2022/09/13 13:07:02;;;;;;;2.15;1.00;;;19.90;88.90;;;;;;5099789;28;20089;-67
2022/09/13 13:09:38;;;;;;;4.90;0.90;;;19.90;88.90;;;;;;5100357;28;20098;-66
2022/09/13 13:12:03;;;;;;;4.60;0.80;;;19.90;88.90;;;;;;5100787;28;20035;-66
2022/09/13 13:14:38;;;;;;;0.80;0.80;;;19.90;89.00;;;;;;5101192;28;20016;-66
2022/09/13 13:17:38;;;;;;;1.38;1.00;;;19.90;89.00;;;;;;5102967;28;20051;-66
2022/09/13 13:20:41;;;;;;;1.15;0.80;;;19.80;88.90;;;;;;5096892;28;20523;-66
2022/09/13 13:23:22;;;;;;;0.70;0.60;;;19.90;88.90;;;;;;5094865;28;20461;-66
2022/09/13 13:26:08;;;;;;;0.88;0.70;;;19.80;88.90;;;;;;5101555;28;20028;-67
2022/09/13 13:28:45;;;;;;;0.50;0.50;;;19.90;88.90;;;;;;5102446;28;20015;-66
2022/09/13 13:31:23;;;;;;;0.63;0.60;;;19.90;88.90;;;;;;5100146;28;20034;-67
2022/09/13 13:33:49;;;;;;;2.15;0.68;;;19.90;88.90;;;;;;5102861;28;20019;-66
2022/09/13 13:36:23;;;;;;;4.45;2.78;;;19.90;88.90;;;;;;5102468;28;20019;-67
2022/09/13 13:38:52;;;;;;;2.70;1.50;;;19.80;88.80;;;;;;5097028;28;20039;-66
2022/09/13 13:41:42;;;;;;;3.40;0.90;;;19.90;88.80;;;;;;5084731;28;20122;-67
2022/09/13 13:44:19;;;;;;;0.70;0.60;;;19.90;88.80;;;;;;5096507;28;20036;-66
2022/09/13 13:47:14;;;;;;;2.97;1.10;;;19.80;88.70;;;;;;5081590;28;20161;-67
2022/09/13 13:49:39;;;;;;;1.27;0.68;;;19.80;88.70;;;;;;5101898;28;20492;-65
2022/09/13 13:52:08;;;;;;;2.35;1.00;;;19.90;88.70;;;;;;5111705;28;20023;-66
2022/09/13 13:54:53;;;;;;;1.23;0.80;;;19.80;88.60;;;;;;5092304;28;20028;-66